Wellsville, Colorado
Current Conditions -  °F | °C
As of 6:15 PM on Tuesday 27 Jan 2015 (Local Time) from KANK Reporting Station
Clear Clear  
Wind Chill: 42°   Ceiling: Unl
Heat Index: 47°   Visibility: 10mi
Dew Point: 17°   Wind: 14mph
Humidity: 30%   Direction: 220°SW
Pressure: 30.28"   Gusts: 20mph
Location:  38.5561°N, 106.066°W
Report Text: KANK 280115Z AUTO 22012G17KT 10SM CLR 09/M08 A3028 RMK AO1 T00851081
Loading
Personal Weather Stations






























Interactive Weather Map New forecast layout! Learn more

10-Day Weather Forecast

Advertisements
Track Severe Weather on mobile